Time;durP1;ratioP1;P1;durP2;ratioP2;P2;SDS_P1;SDS_P2;PMS_P1;PMS_P2;Temp;Humidity;BMP_temperature;BMP_pressure;BME280_temperature;BME280_humidity;BME280_pressure;Samples;Min_cycle;Max_cycle;Signal;HPM_P1;HPM_P2
2021/10/26 00:00:24;;;;;;;1.53;1.10;;;12.00;98.20;;;;;;5028756;28;20483;-77
2021/10/26 00:02:50;;;;;;;1.53;1.00;;;12.00;98.20;;;;;;5026970;28;20885;-77
2021/10/26 00:05:17;;;;;;;1.60;1.10;;;12.00;98.20;;;;;;5027475;28;20466;-77
2021/10/26 00:07:45;;;;;;;1.53;1.00;;;12.00;98.20;;;;;;5021905;28;20478;-77
2021/10/26 00:10:13;;;;;;;1.53;1.00;;;12.00;98.20;;;;;;5026831;28;20659;-76
2021/10/26 00:12:40;;;;;;;3.50;2.43;;;12.00;98.20;;;;;;5025766;28;20479;-77
2021/10/26 00:15:07;;;;;;;1.57;1.10;;;12.00;98.20;;;;;;5028140;28;20511;-77
2021/10/26 00:17:34;;;;;;;1.60;1.10;;;11.90;98.20;;;;;;5029419;28;20526;-77
2021/10/26 00:20:01;;;;;;;1.60;1.10;;;12.00;98.20;;;;;;5030824;28;20470;-77
2021/10/26 00:22:28;;;;;;;1.50;1.00;;;11.90;98.20;;;;;;5024389;28;20491;-77
2021/10/26 00:24:56;;;;;;;1.57;1.10;;;11.90;98.20;;;;;;5028286;28;20460;-77
2021/10/26 00:27:23;;;;;;;1.50;1.10;;;11.90;98.20;;;;;;5024568;28;20483;-76
2021/10/26 00:29:51;;;;;;;1.53;1.10;;;11.90;98.20;;;;;;5034184;28;20463;-76
2021/10/26 00:32:18;;;;;;;1.57;1.10;;;11.90;98.20;;;;;;5016881;28;20483;-77
2021/10/26 00:34:44;;;;;;;1.50;1.00;;;11.90;98.20;;;;;;5029614;28;20468;-77
2021/10/26 00:37:11;;;;;;;1.50;1.10;;;11.90;98.20;;;;;;5025348;28;20482;-77
2021/10/26 00:39:38;;;;;;;1.50;1.10;;;11.90;98.20;;;;;;5033374;28;20846;-77
2021/10/26 00:42:07;;;;;;;1.60;1.10;;;11.90;98.20;;;;;;5029606;28;20482;-77
2021/10/26 00:44:34;;;;;;;1.57;1.10;;;11.90;98.20;;;;;;5033489;28;20491;-77
2021/10/26 00:47:01;;;;;;;1.50;1.07;;;11.90;98.20;;;;;;5027072;28;20486;-77
2021/10/26 00:49:28;;;;;;;1.53;1.00;;;12.00;98.20;;;;;;5033162;28;20969;-77
2021/10/26 00:51:56;;;;;;;1.53;1.00;;;11.90;98.20;;;;;;5026144;28;20501;-77
2021/10/26 00:54:24;;;;;;;1.53;1.00;;;11.90;98.20;;;;;;5031485;28;20471;-77
2021/10/26 00:56:51;;;;;;;1.57;1.10;;;11.90;98.20;;;;;;5010585;28;20552;-77
2021/10/26 00:59:19;;;;;;;1.53;1.00;;;12.00;98.20;;;;;;5028158;28;20462;-76
2021/10/26 01:01:47;;;;;;;1.53;1.10;;;11.90;98.20;;;;;;5019176;28;20493;-77
2021/10/26 01:04:14;;;;;;;1.53;1.10;;;11.90;98.20;;;;;;5033753;28;20475;-77
2021/10/26 01:06:40;;;;;;;1.53;1.10;;;11.90;98.20;;;;;;5025248;28;21006;-77
2021/10/26 01:09:07;;;;;;;1.53;1.00;;;11.90;98.20;;;;;;5031930;28;20838;-77
2021/10/26 01:11:35;;;;;;;1.50;1.00;;;11.80;98.20;;;;;;5015237;28;21114;-78
2021/10/26 01:14:03;;;;;;;1.50;1.10;;;11.80;98.20;;;;;;5029142;28;20463;-77
2021/10/26 01:16:31;;;;;;;1.60;1.10;;;11.80;98.20;;;;;;5020638;28;20470;-77
2021/10/26 01:18:58;;;;;;;1.60;1.20;;;11.80;98.20;;;;;;5033010;28;20545;-77
2021/10/26 01:21:26;;;;;;;1.53;1.10;;;11.80;98.20;;;;;;5015657;28;20544;-77
2021/10/26 01:23:53;;;;;;;1.53;1.00;;;11.80;98.20;;;;;;5035109;28;20470;-77
2021/10/26 01:26:20;;;;;;;1.60;1.20;;;11.80;98.20;;;;;;5015806;28;20485;-77
2021/10/26 01:28:47;;;;;;;1.50;1.10;;;11.80;98.20;;;;;;5039688;28;20467;-77
2021/10/26 01:31:14;;;;;;;1.50;1.10;;;11.80;98.20;;;;;;5020328;28;20535;-77
2021/10/26 01:33:41;;;;;;;1.50;1.00;;;11.70;98.20;;;;;;5029903;28;20487;-77
2021/10/26 01:36:08;;;;;;;1.60;1.10;;;11.70;98.20;;;;;;5014027;28;20482;-77
2021/10/26 01:38:37;;;;;;;1.60;1.10;;;11.70;98.20;;;;;;5021342;28;20470;-77
2021/10/26 01:41:04;;;;;;;1.57;1.10;;;11.70;98.20;;;;;;5016238;28;20559;-77
2021/10/26 01:43:31;;;;;;;1.57;1.07;;;11.60;98.20;;;;;;5040270;28;20486;-77
2021/10/26 01:45:58;;;;;;;1.53;1.00;;;11.60;98.20;;;;;;5010612;28;20473;-77
2021/10/26 01:48:26;;;;;;;1.60;1.10;;;11.60;98.20;;;;;;5026023;28;20459;-77
2021/10/26 01:50:53;;;;;;;1.50;1.10;;;11.60;98.20;;;;;;5016130;28;20458;-76
2021/10/26 01:53:20;;;;;;;1.60;1.10;;;11.60;98.20;;;;;;5028812;28;20492;-77
2021/10/26 01:55:48;;;;;;;1.53;1.10;;;11.60;98.20;;;;;;5015751;28;20478;-77
2021/10/26 01:58:16;;;;;;;1.57;1.10;;;11.60;98.20;;;;;;5027038;28;20487;-77
2021/10/26 02:00:43;;;;;;;1.53;1.10;;;11.60;98.20;;;;;;5026731;28;20467;-77
2021/10/26 02:03:10;;;;;;;1.53;1.10;;;11.60;98.20;;;;;;5021661;28;20483;-77
2021/10/26 02:05:36;;;;;;;1.57;1.10;;;11.60;98.20;;;;;;5024164;28;21005;-78
2021/10/26 02:08:03;;;;;;;1.53;1.10;;;11.60;98.20;;;;;;5027368;28;20474;-77
2021/10/26 02:10:30;;;;;;;1.50;1.10;;;11.60;98.20;;;;;;5025225;28;20467;-77
2021/10/26 02:12:58;;;;;;;1.60;1.13;;;11.50;98.20;;;;;;5021947;28;20487;-77
2021/10/26 02:15:25;;;;;;;1.60;1.10;;;11.50;98.20;;;;;;5025524;28;20830;-77
2021/10/26 02:17:52;;;;;;;1.60;1.10;;;11.50;98.20;;;;;;5033347;28;20536;-78
2021/10/26 02:20:19;;;;;;;1.57;1.03;;;11.50;98.20;;;;;;5025591;28;20460;-77
2021/10/26 02:22:45;;;;;;;1.60;1.10;;;11.40;98.20;;;;;;5028306;28;20489;-77
2021/10/26 02:25:12;;;;;;;1.60;1.10;;;11.40;98.20;;;;;;5026336;28;20467;-77
2021/10/26 02:27:39;;;;;;;1.60;1.10;;;11.40;98.20;;;;;;5024162;28;20482;-77
2021/10/26 02:30:08;;;;;;;1.53;1.10;;;11.40;98.20;;;;;;5019145;28;20559;-77
2021/10/26 02:32:35;;;;;;;1.53;1.10;;;11.40;98.20;;;;;;5030488;28;20490;-78
2021/10/26 02:35:02;;;;;;;1.57;1.13;;;11.40;98.20;;;;;;5025112;28;20467;-78
2021/10/26 02:37:29;;;;;;;1.60;1.10;;;11.40;98.20;;;;;;5024340;28;20538;-78
2021/10/26 02:39:56;;;;;;;1.57;1.10;;;11.40;98.20;;;;;;5025252;28;20458;-77
2021/10/26 02:42:23;;;;;;;1.60;1.20;;;11.40;98.20;;;;;;5020629;28;20479;-78
2021/10/26 02:44:50;;;;;;;1.60;1.13;;;11.40;98.20;;;;;;5024913;28;20487;-77
2021/10/26 02:47:18;;;;;;;1.57;1.00;;;11.40;98.20;;;;;;5025368;28;20574;-78
2021/10/26 02:49:44;;;;;;;1.53;1.10;;;11.40;98.20;;;;;;5035192;28;20491;-77
2021/10/26 02:52:12;;;;;;;1.50;1.00;;;11.40;98.20;;;;;;5027411;28;20497;-77
2021/10/26 02:54:38;;;;;;;1.60;1.10;;;11.40;98.20;;;;;;5034517;28;20463;-77
2021/10/26 02:57:05;;;;;;;1.60;1.10;;;11.40;98.20;;;;;;5030293;28;20588;-76
2021/10/26 02:59:32;;;;;;;1.53;1.10;;;11.40;98.20;;;;;;5031798;28;20484;-78
2021/10/26 03:01:59;;;;;;;1.57;1.10;;;11.40;98.20;;;;;;5029633;28;20506;-78
2021/10/26 03:04:27;;;;;;;1.53;1.10;;;11.40;98.20;;;;;;5040631;28;20456;-78
2021/10/26 03:06:53;;;;;;;1.57;1.00;;;11.50;98.20;;;;;;5022274;28;20479;-78
2021/10/26 03:09:21;;;;;;;1.53;1.10;;;11.50;98.20;;;;;;5037361;28;21101;-78
2021/10/26 03:11:48;;;;;;;1.60;1.20;;;11.40;98.20;;;;;;5023091;28;20486;-77
2021/10/26 03:14:14;;;;;;;1.50;1.00;;;11.50;98.20;;;;;;5029639;28;20467;-77
2021/10/26 03:16:41;;;;;;;1.50;1.10;;;11.50;98.20;;;;;;5025384;28;20568;-77
2021/10/26 03:19:08;;;;;;;1.60;1.10;;;11.50;98.20;;;;;;5037102;28;20467;-78
2021/10/26 03:21:38;;;;;;;1.60;1.10;;;11.50;98.20;;;;;;5020181;28;20490;-77
2021/10/26 03:24:06;;;;;;;1.60;1.20;;;11.50;98.20;;;;;;5037638;28;20579;-78
2021/10/26 03:26:33;;;;;;;1.60;1.20;;;11.50;98.20;;;;;;5022440;28;20490;-77
2021/10/26 03:28:59;;;;;;;1.57;1.10;;;11.50;98.20;;;;;;5037301;28;20451;-77
2021/10/26 03:31:27;;;;;;;1.53;1.10;;;11.50;98.20;;;;;;5020003;28;20477;-77
2021/10/26 03:33:53;;;;;;;1.50;1.00;;;11.50;98.20;;;;;;5030144;28;20474;-78
2021/10/26 03:36:20;;;;;;;1.53;1.10;;;11.50;98.20;;;;;;5026013;28;20482;-78
2021/10/26 03:38:50;;;;;;;1.60;1.10;;;11.50;98.20;;;;;;5036089;28;20565;-77
2021/10/26 03:41:17;;;;;;;1.53;1.00;;;11.50;98.20;;;;;;5022312;28;20507;-77
2021/10/26 03:43:44;;;;;;;1.53;1.10;;;11.50;98.20;;;;;;5029856;28;20487;-77
2021/10/26 03:46:12;;;;;;;1.60;1.10;;;11.40;98.20;;;;;;5017870;28;20489;-78
2021/10/26 03:48:39;;;;;;;1.50;1.10;;;11.40;98.20;;;;;;5039593;28;21031;-77
2021/10/26 03:51:06;;;;;;;1.50;1.10;;;11.40;98.20;;;;;;5022279;28;20459;-78
2021/10/26 03:53:33;;;;;;;1.53;1.00;;;11.40;98.20;;;;;;5032383;28;20478;-77
2021/10/26 03:56:01;;;;;;;1.53;1.10;;;11.40;98.20;;;;;;5019471;28;20499;-77
2021/10/26 03:58:28;;;;;;;1.57;1.00;;;11.30;98.20;;;;;;5037314;28;20578;-77
2021/10/26 04:00:55;;;;;;;1.60;1.10;;;11.30;98.20;;;;;;5017949;28;20837;-78
2021/10/26 04:03:22;;;;;;;1.57;1.10;;;11.30;98.20;;;;;;5038814;28;20494;-78
2021/10/26 04:05:56;;;;;;;1.60;1.10;;;11.20;98.20;;;;;;5020972;28;20506;-77
2021/10/26 04:08:26;;;;;;;1.60;1.20;;;11.20;98.20;;;;;;5036443;28;20567;-77
2021/10/26 04:10:55;;;;;;;1.60;1.10;;;11.10;98.20;;;;;;5015653;28;20467;-77
2021/10/26 04:13:24;;;;;;;1.57;1.10;;;11.10;98.20;;;;;;5041431;28;20491;-78
2021/10/26 04:15:54;;;;;;;1.60;1.20;;;11.10;98.20;;;;;;5016322;28;20475;-78
2021/10/26 04:18:21;;;;;;;1.60;1.20;;;11.00;98.20;;;;;;5021893;28;20496;-78
2021/10/26 04:20:48;;;;;;;1.57;1.10;;;11.00;98.20;;;;;;5019023;28;20878;-78
2021/10/26 04:23:15;;;;;;;1.60;1.10;;;11.00;98.20;;;;;;5044464;28;20484;-78
2021/10/26 04:25:41;;;;;;;1.60;1.10;;;11.00;98.20;;;;;;5029649;28;20563;-78
2021/10/26 04:28:08;;;;;;;1.60;1.20;;;11.00;98.20;;;;;;5031310;28;20480;-77
2021/10/26 04:30:37;;;;;;;1.60;1.10;;;11.10;98.20;;;;;;5026726;28;20459;-77
2021/10/26 04:33:05;;;;;;;1.57;1.10;;;11.10;98.20;;;;;;5034469;28;20896;-78
2021/10/26 04:35:32;;;;;;;1.60;1.20;;;11.10;98.20;;;;;;5027340;28;20522;-77
2021/10/26 04:37:59;;;;;;;1.57;1.20;;;11.10;98.20;;;;;;5021271;28;20577;-77
2021/10/26 04:40:26;;;;;;;1.57;1.20;;;11.10;98.20;;;;;;5022907;28;20487;-77
2021/10/26 04:42:53;;;;;;;1.60;1.10;;;11.10;98.20;;;;;;5033506;28;20526;-78
2021/10/26 04:45:22;;;;;;;1.57;1.10;;;11.20;98.20;;;;;;5030052;28;20470;-78
2021/10/26 04:47:50;;;;;;;1.60;1.20;;;11.20;98.20;;;;;;5034932;28;20573;-78
2021/10/26 04:50:18;;;;;;;1.53;1.20;;;11.20;98.20;;;;;;5027732;28;20459;-78
2021/10/26 04:52:45;;;;;;;1.57;1.10;;;11.20;98.20;;;;;;5022981;28;20884;-78
2021/10/26 04:55:12;;;;;;;1.53;1.10;;;11.20;98.20;;;;;;5030389;28;20463;-78
2021/10/26 04:57:39;;;;;;;1.60;1.20;;;11.20;98.20;;;;;;5017429;28;20479;-78
2021/10/26 05:00:09;;;;;;;1.60;1.10;;;11.30;98.20;;;;;;5029897;28;20587;-78
2021/10/26 05:02:36;;;;;;;1.60;1.20;;;11.30;98.20;;;;;;5029454;28;20490;-79
2021/10/26 05:05:04;;;;;;;1.60;1.10;;;11.30;98.20;;;;;;5029943;28;20463;-78
2021/10/26 05:07:31;;;;;;;1.57;1.10;;;11.30;98.20;;;;;;5028610;28;20486;-78
2021/10/26 05:09:58;;;;;;;1.60;1.10;;;11.40;98.20;;;;;;5030320;28;20462;-78
2021/10/26 05:12:25;;;;;;;1.60;1.13;;;11.40;98.20;;;;;;5025090;28;20513;-78
2021/10/26 05:14:52;;;;;;;1.53;1.10;;;11.40;98.20;;;;;;5027142;28;20517;-78
2021/10/26 05:17:20;;;;;;;1.60;1.20;;;11.40;98.20;;;;;;5021213;28;20475;-78
2021/10/26 05:19:50;;;;;;;1.53;1.03;;;11.40;98.20;;;;;;5029536;28;20519;-78
2021/10/26 05:22:19;;;;;;;1.57;1.17;;;11.40;98.20;;;;;;5018199;28;20569;-78
2021/10/26 05:24:47;;;;;;;1.60;1.20;;;11.40;98.20;;;;;;5029935;28;21116;-76
2021/10/26 05:27:14;;;;;;;1.60;1.20;;;11.40;98.20;;;;;;5025683;28;20486;-79
2021/10/26 05:29:41;;;;;;;1.60;1.20;;;11.40;98.20;;;;;;5026333;28;20969;-79
2021/10/26 05:32:09;;;;;;;1.57;1.10;;;11.40;98.20;;;;;;5021044;28;20494;-79
2021/10/26 05:34:37;;;;;;;1.53;1.10;;;11.30;98.20;;;;;;5027795;28;21018;-77
2021/10/26 05:37:04;;;;;;;1.60;1.10;;;11.30;98.20;;;;;;5012400;28;20481;-76
2021/10/26 05:39:32;;;;;;;1.57;1.10;;;11.20;98.20;;;;;;5028133;28;20514;-77
2021/10/26 05:42:00;;;;;;;1.60;1.20;;;11.20;98.20;;;;;;5008372;28;20483;-77
2021/10/26 05:44:28;;;;;;;1.57;1.10;;;11.20;98.20;;;;;;5028442;28;20890;-77
2021/10/26 05:46:54;;;;;;;1.60;1.20;;;11.20;98.20;;;;;;5024115;28;20479;-77
2021/10/26 05:49:21;;;;;;;1.60;1.10;;;11.10;98.20;;;;;;5030386;28;20464;-77
2021/10/26 05:51:48;;;;;;;1.53;1.10;;;11.10;98.20;;;;;;5020182;28;20483;-78
2021/10/26 05:54:15;;;;;;;1.50;1.07;;;11.10;98.20;;;;;;5045646;22;20487;-79
2021/10/26 05:56:43;;;;;;;1.60;1.20;;;11.10;98.20;;;;;;5026302;28;20470;-79
2021/10/26 05:59:12;;;;;;;1.53;1.10;;;11.10;98.20;;;;;;5034612;28;20586;-78
2021/10/26 06:01:40;;;;;;;1.57;1.10;;;11.10;98.20;;;;;;5020165;28;20471;-79
2021/10/26 06:04:07;;;;;;;1.60;1.20;;;11.10;98.20;;;;;;5027336;28;20508;-78
2021/10/26 06:06:37;;;;;;;1.60;1.20;;;11.00;98.20;;;;;;5006965;28;20571;-79
2021/10/26 06:09:04;;;;;;;1.60;1.10;;;11.00;98.20;;;;;;5017606;28;20457;-79
2021/10/26 06:11:32;;;;;;;1.57;1.17;;;11.00;98.20;;;;;;4997270;28;20495;-79
2021/10/26 06:14:02;;;;;;;1.57;1.20;;;11.00;98.20;;;;;;5005149;28;21017;-79
2021/10/26 06:16:30;;;;;;;1.60;1.10;;;10.90;98.20;;;;;;5001099;28;20483;-79
2021/10/26 06:18:56;;;;;;;1.53;1.10;;;10.90;98.20;;;;;;5017196;28;20987;-78
2021/10/26 06:21:23;;;;;;;1.57;1.20;;;10.90;98.20;;;;;;4999192;28;20484;-79
2021/10/26 06:23:50;;;;;;;1.60;1.20;;;10.90;98.20;;;;;;4999624;28;20487;-79
2021/10/26 06:26:17;;;;;;;1.60;1.10;;;10.80;98.20;;;;;;5000691;28;20857;-78
2021/10/26 06:28:44;;;;;;;1.60;1.10;;;10.80;98.20;;;;;;5020145;28;20476;-79
2021/10/26 06:31:12;;;;;;;1.53;1.10;;;10.80;98.20;;;;;;4998352;28;20488;-79
2021/10/26 06:33:39;;;;;;;1.53;1.10;;;10.80;98.20;;;;;;5025906;28;20464;-79
2021/10/26 06:36:05;;;;;;;1.57;1.10;;;10.70;98.20;;;;;;4998570;28;20460;-78
2021/10/26 06:38:32;;;;;;;1.60;1.20;;;10.70;98.20;;;;;;5021924;28;20878;-80
2021/10/26 06:40:59;;;;;;;1.60;1.20;;;10.70;98.20;;;;;;4988670;28;20461;-79
2021/10/26 06:43:26;;;;;;;1.60;1.13;;;10.80;98.20;;;;;;5025030;28;20530;-79
2021/10/26 06:45:55;;;;;;;2.43;1.73;;;10.80;98.20;;;;;;4995583;28;20484;-80
2021/10/26 06:48:24;;;;;;;1.57;1.10;;;10.80;98.20;;;;;;4998499;28;20839;-78
2021/10/26 06:50:51;;;;;;;1.60;1.10;;;10.90;98.20;;;;;;4996491;28;20472;-79
2021/10/26 06:53:19;;;;;;;1.60;1.20;;;11.00;98.20;;;;;;5021243;28;20979;-80
2021/10/26 06:55:46;;;;;;;1.57;1.10;;;11.00;98.20;;;;;;5005399;28;20496;-79
2021/10/26 06:58:13;;;;;;;1.60;1.10;;;11.00;98.20;;;;;;4992429;28;20492;-78
2021/10/26 07:00:42;;;;;;;1.60;1.10;;;11.10;98.20;;;;;;5005388;28;20792;-78
2021/10/26 07:03:09;;;;;;;1.57;1.10;;;11.10;98.20;;;;;;5011947;28;20524;-77
2021/10/26 07:05:38;;;;;;;1.60;1.10;;;11.10;98.20;;;;;;5008768;28;20496;-78
2021/10/26 07:08:06;;;;;;;1.60;1.10;;;11.20;98.20;;;;;;5015590;28;20475;-77
2021/10/26 07:10:32;;;;;;;1.50;1.10;;;11.20;98.20;;;;;;5006684;28;20483;-77
2021/10/26 07:12:59;;;;;;;1.57;1.20;;;11.20;98.20;;;;;;5017558;28;20885;-77
2021/10/26 07:15:29;;;;;;;1.60;1.10;;;11.30;98.20;;;;;;5003765;28;20490;-79
2021/10/26 07:17:56;;;;;;;1.60;1.30;;;11.30;98.20;;;;;;4994878;28;20483;-77
2021/10/26 07:20:22;;;;;;;1.53;1.10;;;11.40;98.20;;;;;;5006414;28;20472;-78
2021/10/26 07:22:54;;;;;;;1.53;1.10;;;11.40;98.20;;;;;;4991281;28;20487;-78
2021/10/26 07:25:22;;;;;;;1.60;1.20;;;11.50;98.20;;;;;;5008524;28;20488;-78
2021/10/26 07:27:57;;;;;;;1.53;1.10;;;11.60;98.20;;;;;;5016357;28;20525;-78
2021/10/26 07:30:24;;;;;;;1.60;1.17;;;11.60;98.20;;;;;;5002921;28;21035;-78
2021/10/26 07:32:51;;;;;;;1.57;1.10;;;11.70;98.20;;;;;;5013544;28;20475;-79
2021/10/26 07:35:18;;;;;;;1.60;1.10;;;11.70;98.20;;;;;;5000884;28;20492;-78
2021/10/26 07:37:46;;;;;;;1.60;1.17;;;11.80;98.20;;;;;;5010406;28;20483;-79
2021/10/26 07:40:16;;;;;;;1.60;1.10;;;11.80;98.20;;;;;;5006652;28;20495;-79
2021/10/26 07:42:42;;;;;;;1.53;1.10;;;11.90;98.20;;;;;;5013191;28;20886;-78
2021/10/26 07:45:11;;;;;;;1.60;1.10;;;12.00;98.20;;;;;;5004597;28;20520;-78
2021/10/26 07:47:38;;;;;;;1.57;1.10;;;12.00;98.20;;;;;;5011333;28;20495;-79
2021/10/26 07:50:07;;;;;;;1.60;1.10;;;12.10;98.20;;;;;;5005496;28;20483;-78
2021/10/26 07:52:34;;;;;;;1.57;1.00;;;12.10;98.20;;;;;;4991176;28;20489;-79
2021/10/26 07:55:02;;;;;;;1.60;1.10;;;12.20;98.20;;;;;;5005650;28;20942;-78
2021/10/26 07:57:31;;;;;;;1.60;1.10;;;12.20;98.20;;;;;;4988907;28;21133;-79
2021/10/26 07:59:58;;;;;;;1.57;1.10;;;12.30;98.20;;;;;;5009530;28;20545;-78
2021/10/26 08:02:25;;;;;;;1.60;1.10;;;12.30;98.20;;;;;;4985857;28;20555;-79
2021/10/26 08:04:55;;;;;;;1.57;1.00;;;12.30;98.20;;;;;;5000207;28;20865;-78
2021/10/26 08:07:22;;;;;;;1.50;1.00;;;12.30;98.20;;;;;;4993368;28;20488;-79
2021/10/26 08:09:50;;;;;;;1.60;1.10;;;12.30;98.20;;;;;;5006133;28;20684;-78
2021/10/26 08:12:17;;;;;;;1.60;1.00;;;12.40;98.20;;;;;;4995240;28;20499;-78
2021/10/26 08:14:46;;;;;;;1.57;1.00;;;12.40;98.20;;;;;;5007996;28;20646;-78
2021/10/26 08:17:13;;;;;;;1.60;1.10;;;12.40;98.20;;;;;;4995814;28;20809;-78
2021/10/26 08:19:42;;;;;;;1.57;1.07;;;12.40;98.20;;;;;;5000245;28;20484;-78
2021/10/26 08:22:12;;;;;;;1.60;1.10;;;12.40;98.20;;;;;;5002832;28;20487;-78
2021/10/26 08:24:40;;;;;;;1.57;1.10;;;12.40;98.20;;;;;;5009613;28;20500;-78
2021/10/26 08:27:08;;;;;;;1.53;1.10;;;12.40;98.20;;;;;;5007890;28;20479;-78
2021/10/26 08:29:44;;;;;;;1.57;1.10;;;12.40;98.20;;;;;;5014669;28;20468;-78
2021/10/26 08:32:29;;;;;;;1.53;1.03;;;12.50;98.20;;;;;;5001773;28;21063;-78
2021/10/26 08:38:00;;;;;;;1.60;1.10;;;12.60;98.20;;;;;;4956300;28;20811;-78
2021/10/26 08:40:28;;;;;;;1.57;1.10;;;12.70;98.20;;;;;;4967025;28;20498;-78
2021/10/26 08:42:58;;;;;;;1.60;1.00;;;12.70;98.20;;;;;;4952473;28;20541;-79
2021/10/26 08:45:26;;;;;;;1.57;1.00;;;12.80;98.20;;;;;;4985608;28;20489;-79
2021/10/26 08:47:56;;;;;;;1.50;1.00;;;12.90;98.20;;;;;;4994721;28;20499;-78
2021/10/26 08:50:24;;;;;;;1.53;1.00;;;12.90;98.20;;;;;;4984121;28;21027;-78
2021/10/26 08:52:51;;;;;;;1.60;1.20;;;13.00;98.20;;;;;;4994259;28;20476;-78
2021/10/26 08:55:18;;;;;;;1.57;1.00;;;13.00;98.20;;;;;;4980043;28;20972;-79
2021/10/26 08:57:46;;;;;;;1.53;1.03;;;13.10;98.20;;;;;;4985925;28;20481;-79
2021/10/26 09:00:16;;;;;;;1.57;1.00;;;13.20;98.20;;;;;;5004887;28;21279;-79
2021/10/26 09:02:46;;;;;;;2.00;1.80;;;13.30;98.20;;;;;;5012683;28;20505;-78
2021/10/26 09:05:17;;;;;;;1.53;1.00;;;13.40;98.20;;;;;;4997153;28;20499;-82
2021/10/26 09:08:00;;;;;;;1.60;1.07;;;13.50;98.20;;;;;;5015001;28;20493;-78
2021/10/26 09:10:30;;;;;;;1.53;1.00;;;13.60;98.20;;;;;;4998289;28;20460;-78
2021/10/26 09:18:38;;;;;;;1.60;1.10;;;14.00;98.20;;;;;;4998704;28;20483;-77
2021/10/26 09:21:24;;;;;;;1.60;1.00;;;14.10;98.20;;;;;;4993120;28;20483;-77
2021/10/26 09:23:55;;;;;;;1.60;1.00;;;14.20;98.20;;;;;;5011864;28;21316;-77
2021/10/26 09:26:22;;;;;;;1.50;1.00;;;14.50;98.20;;;;;;4991480;28;20484;-78
2021/10/26 09:28:52;;;;;;;1.60;1.00;;;14.70;98.20;;;;;;5000308;28;20476;-79
2021/10/26 09:31:24;;;;;;;1.60;1.00;;;14.80;98.20;;;;;;4991170;28;20886;-78
2021/10/26 09:33:59;;;;;;;1.60;1.00;;;15.00;98.20;;;;;;5013784;28;20532;-78
2021/10/26 09:36:30;;;;;;;1.57;0.90;;;15.10;98.20;;;;;;4995873;28;20572;-78
2021/10/26 09:39:10;;;;;;;1.50;1.00;;;15.10;98.20;;;;;;5007989;28;20562;-77
2021/10/26 09:41:37;;;;;;;1.60;1.00;;;15.10;98.20;;;;;;4998507;28;21122;-78
2021/10/26 09:44:12;;;;;;;1.60;1.10;;;15.20;98.20;;;;;;5012967;28;20562;-78
2021/10/26 09:46:40;;;;;;;1.60;1.00;;;15.20;98.20;;;;;;4986007;28;20491;-78
2021/10/26 09:49:21;;;;;;;1.50;1.00;;;15.20;98.20;;;;;;4995934;28;20460;-78
2021/10/26 09:51:50;;;;;;;1.60;1.00;;;15.30;98.20;;;;;;4994822;28;20562;-78
2021/10/26 09:54:19;;;;;;;1.60;1.00;;;15.40;98.20;;;;;;5006415;28;21072;-78
2021/10/26 09:57:05;;;;;;;1.50;1.00;;;15.50;98.20;;;;;;4996857;28;21024;-79
2021/10/26 09:59:33;;;;;;;1.60;1.07;;;15.50;98.20;;;;;;5005412;28;20518;-78
2021/10/26 10:01:59;;;;;;;1.60;1.00;;;15.50;98.20;;;;;;4994511;28;20484;-78
2021/10/26 10:04:31;;;;;;;1.60;1.10;;;15.60;98.20;;;;;;4999177;28;20489;-78
2021/10/26 10:06:59;;;;;;;1.60;1.10;;;15.60;98.20;;;;;;4994609;28;20495;-78
2021/10/26 10:09:27;;;;;;;1.53;1.00;;;15.70;98.20;;;;;;5001314;28;20532;-78
2021/10/26 10:12:02;;;;;;;1.60;1.00;;;15.70;98.20;;;;;;4992391;28;20480;-78
2021/10/26 10:14:29;;;;;;;1.53;1.00;;;15.70;98.20;;;;;;4995254;28;20518;-79
2021/10/26 10:16:56;;;;;;;1.57;1.00;;;15.70;98.20;;;;;;5002909;28;20754;-78
2021/10/26 10:19:23;;;;;;;1.57;1.00;;;15.80;98.20;;;;;;5009159;28;20492;-78
2021/10/26 10:22:02;;;;;;;1.53;1.00;;;15.80;98.20;;;;;;4984946;28;20493;-77
2021/10/26 10:24:33;;;;;;;1.53;1.00;;;15.90;98.20;;;;;;4998427;28;20491;-76
2021/10/26 10:27:01;;;;;;;1.60;1.00;;;15.90;98.20;;;;;;5022695;28;20749;-78
2021/10/26 10:29:28;;;;;;;1.57;1.00;;;16.00;98.20;;;;;;5027948;28;20520;-78
2021/10/26 10:31:55;;;;;;;1.57;1.00;;;15.90;98.20;;;;;;5024356;28;20978;-79
2021/10/26 10:34:22;;;;;;;1.57;1.00;;;15.90;98.20;;;;;;5038685;28;20478;-79
2021/10/26 10:36:53;;;;;;;1.57;1.10;;;16.00;98.20;;;;;;5022314;28;20497;-79
2021/10/26 10:39:26;;;;;;;1.57;1.00;;;16.00;98.20;;;;;;5032616;28;20472;-79
2021/10/26 10:42:19;;;;;;;1.50;0.97;;;16.00;98.20;;;;;;5025358;28;20859;-79
2021/10/26 10:44:46;;;;;;;1.60;1.00;;;16.00;98.20;;;;;;5026480;28;20497;-79
2021/10/26 10:47:32;;;;;;;1.57;1.00;;;16.10;98.20;;;;;;5023545;28;20476;-80
2021/10/26 10:50:01;;;;;;;1.57;1.00;;;16.30;98.20;;;;;;5026969;28;20594;-80
2021/10/26 10:52:31;;;;;;;1.53;0.97;;;16.50;98.20;;;;;;5016201;28;20559;-79
2021/10/26 10:55:00;;;;;;;1.53;1.00;;;16.50;98.20;;;;;;5022299;28;20534;-80
2021/10/26 10:57:33;;;;;;;1.50;0.90;;;16.50;98.20;;;;;;5007389;28;20483;-78
2021/10/26 11:00:03;;;;;;;1.50;1.00;;;16.60;98.20;;;;;;5021689;28;20480;-80
2021/10/26 11:02:35;;;;;;;1.50;1.00;;;16.70;98.20;;;;;;5026428;28;20549;-80
2021/10/26 11:05:05;;;;;;;1.57;1.00;;;16.70;98.20;;;;;;5021146;28;20556;-79
2021/10/26 11:07:52;;;;;;;1.50;1.00;;;16.80;98.20;;;;;;5025646;28;20558;-80
2021/10/26 11:10:20;;;;;;;1.50;1.00;;;16.90;98.20;;;;;;5021869;28;20464;-80
2021/10/26 11:12:51;;;;;;;1.50;0.90;;;17.00;96.90;;;;;;5012897;28;20491;-78
2021/10/26 11:15:24;;;;;;;1.53;1.00;;;17.00;96.80;;;;;;5016931;28;20483;-79
2021/10/26 11:17:56;;;;;;;1.53;1.00;;;17.00;96.30;;;;;;4998386;28;20559;-79
2021/10/26 11:20:46;;;;;;;1.50;1.00;;;17.00;96.20;;;;;;5010929;28;20499;-79
2021/10/26 11:23:17;;;;;;;1.53;1.00;;;17.10;96.10;;;;;;5001920;28;20540;-79
2021/10/26 11:25:46;;;;;;;1.50;0.90;;;17.10;95.40;;;;;;5016563;28;20483;-79
2021/10/26 11:28:37;;;;;;;1.60;1.20;;;17.00;95.50;;;;;;4993861;28;20488;-78
2021/10/26 11:31:07;;;;;;;1.50;1.00;;;17.00;95.20;;;;;;4997249;28;20880;-80
2021/10/26 11:33:37;;;;;;;1.50;1.00;;;17.00;96.30;;;;;;5021849;28;20468;-78
2021/10/26 11:36:06;;;;;;;1.57;1.00;;;16.90;96.30;;;;;;4993428;28;20555;-77
2021/10/26 11:38:37;;;;;;;1.60;1.00;;;17.00;96.60;;;;;;5020692;28;20978;-80
2021/10/26 11:41:07;;;;;;;1.50;0.90;;;17.00;97.10;;;;;;4994682;28;20491;-78
2021/10/26 11:43:41;;;;;;;1.57;1.00;;;17.00;96.10;;;;;;5020127;28;20464;-79
2021/10/26 11:46:11;;;;;;;1.53;0.90;;;17.00;95.90;;;;;;4996677;28;20514;-79
2021/10/26 11:48:43;;;;;;;1.53;0.90;;;17.00;95.50;;;;;;5016860;28;20484;-80
2021/10/26 11:51:18;;;;;;;1.53;1.00;;;17.10;95.90;;;;;;4993747;28;20894;-79
2021/10/26 11:53:45;;;;;;;1.57;1.00;;;17.20;95.70;;;;;;5024967;28;20798;-79
2021/10/26 11:56:28;;;;;;;1.50;1.00;;;17.30;94.70;;;;;;4994946;28;20525;-79
2021/10/26 11:59:08;;;;;;;1.53;1.00;;;17.30;95.40;;;;;;5015944;28;20551;-79
2021/10/26 12:01:37;;;;;;;1.57;1.00;;;17.40;95.00;;;;;;5005966;28;20487;-79
2021/10/26 12:04:06;;;;;;;1.50;1.00;;;17.40;94.70;;;;;;5019625;28;20487;-79
2021/10/26 12:06:36;;;;;;;1.60;1.00;;;17.30;94.50;;;;;;5003063;28;20487;-79
2021/10/26 12:09:10;;;;;;;1.50;0.90;;;17.20;94.90;;;;;;5016971;28;20464;-79
2021/10/26 12:11:37;;;;;;;1.53;0.90;;;17.20;94.50;;;;;;4999324;28;20504;-79
2021/10/26 12:14:28;;;;;;;1.53;0.90;;;17.10;94.60;;;;;;5018245;28;21021;-79
2021/10/26 12:17:20;;;;;;;1.57;1.00;;;16.90;95.00;;;;;;5006838;28;20483;-78
2021/10/26 12:19:50;;;;;;;1.53;0.90;;;16.80;95.60;;;;;;5005932;28;20809;-78
2021/10/26 12:22:19;;;;;;;1.50;1.00;;;16.70;95.70;;;;;;5006855;28;20483;-78
2021/10/26 12:24:57;;;;;;;1.57;1.00;;;16.60;96.70;;;;;;5010742;28;20492;-78
2021/10/26 12:27:30;;;;;;;1.50;0.90;;;16.80;95.70;;;;;;5011421;28;20511;-79
2021/10/26 12:30:08;;;;;;;2.70;2.50;;;16.90;96.20;;;;;;5008136;28;20457;-80
2021/10/26 12:32:35;;;;;;;1.60;0.90;;;17.00;96.30;;;;;;5010827;28;20483;-80
2021/10/26 12:35:02;;;;;;;1.50;1.00;;;17.20;95.30;;;;;;5005431;28;20507;-80
2021/10/26 12:37:32;;;;;;;1.53;1.03;;;17.30;95.50;;;;;;4995336;28;20480;-77
2021/10/26 12:40:01;;;;;;;1.57;1.00;;;17.40;94.70;;;;;;5005065;28;20488;-80
2021/10/26 12:42:36;;;;;;;1.50;0.90;;;17.60;93.90;;;;;;4995603;28;20488;-80
2021/10/26 12:45:08;;;;;;;1.53;1.00;;;17.60;93.00;;;;;;5004874;28;20543;-80
2021/10/26 12:47:56;;;;;;;1.50;1.00;;;17.70;92.90;;;;;;5011527;28;20491;-79
2021/10/26 12:50:34;;;;;;;1.57;1.00;;;17.80;92.70;;;;;;4998331;28;20468;-78
2021/10/26 12:53:19;;;;;;;1.53;0.93;;;17.90;92.30;;;;;;4991566;28;20483;-78
2021/10/26 12:55:47;;;;;;;1.60;1.00;;;17.90;93.70;;;;;;5003595;28;20518;-78
2021/10/26 12:58:39;;;;;;;1.57;1.00;;;18.00;93.30;;;;;;5023304;28;20477;-78
2021/10/26 13:01:20;;;;;;;1.50;1.00;;;18.00;92.50;;;;;;4998282;28;20488;-78
2021/10/26 13:03:58;;;;;;;1.53;0.93;;;17.90;91.80;;;;;;5016430;28;20469;-79
2021/10/26 13:06:29;;;;;;;1.50;1.00;;;17.80;92.00;;;;;;5006394;28;20478;-78